createdAt,value
2022-08-28T00:02:46.592Z,77.51
2022-08-28T00:08:48.733Z,77.97
2022-08-28T00:14:50.707Z,78.07
2022-08-28T00:20:53.411Z,77.06
2022-08-28T00:27:14.068Z,78.23
2022-08-28T00:33:36.280Z,78.54
2022-08-28T00:39:38.231Z,78.25
2022-08-28T00:45:40.579Z,78.07
2022-08-28T00:52:01.335Z,77.65
2022-08-28T00:58:04.168Z,77.41
2022-08-28T01:04:06.508Z,77.32
2022-08-28T01:10:13.913Z,78.15
2022-08-28T01:16:18.651Z,79.05
2022-08-28T01:22:59.488Z,78.92
2022-08-28T01:29:02.742Z,79.96
2022-08-28T01:35:09.815Z,79.55
2022-08-28T01:41:14.010Z,79.32
2022-08-28T01:47:16.685Z,80.53
2022-08-28T01:53:24.964Z,80.89
2022-08-28T01:59:27.094Z,80.45
2022-08-28T02:05:33.028Z,80.09
2022-08-28T02:11:35.125Z,81.17
2022-08-28T02:17:37.217Z,80.69
2022-08-28T02:23:41.899Z,81.06
2022-08-28T02:29:44.245Z,81.79
2022-08-28T02:35:46.245Z,83.04
2022-08-28T02:41:48.537Z,83.72
2022-08-28T02:47:53.672Z,84.74
2022-08-28T02:53:55.663Z,85.44
2022-08-28T02:59:58.940Z,85.94
2022-08-28T03:06:02.274Z,86.21
2022-08-28T03:12:04.710Z,86.45
2022-08-28T03:18:08.087Z,86.31
2022-08-28T03:24:15.144Z,87.21
2022-08-28T03:30:20.078Z,87.27
2022-08-28T03:36:25.844Z,87.55
2022-08-28T03:42:27.959Z,88.19
2022-08-28T03:48:34.690Z,88.63
2022-08-28T03:54:36.666Z,89.13
2022-08-28T04:00:40.519Z,89.13
2022-08-28T04:06:42.572Z,89.71
2022-08-28T04:12:44.556Z,89.88
2022-08-28T04:18:49.373Z,89.79
2022-08-28T04:24:51.412Z,89.87
2022-08-28T04:30:55.272Z,90.34
2022-08-28T04:36:57.300Z,90.11
2022-08-28T04:42:59.210Z,90.12
2022-08-28T04:49:01.239Z,89.99
2022-08-28T04:55:04.765Z,88.82
2022-08-28T05:01:24.651Z,88.74
2022-08-28T05:07:26.797Z,89.17
2022-08-28T05:13:28.816Z,88.50
2022-08-28T05:19:33.344Z,86.99
2022-08-28T05:25:38.145Z,88.43
2022-08-28T05:31:42.698Z,87.84
2022-08-28T05:37:45.966Z,88.05
2022-08-28T05:43:49.171Z,85.81
2022-08-28T05:49:51.127Z,87.15
2022-08-28T05:55:54.353Z,87.45
2022-08-28T06:02:00.947Z,87.36
2022-08-28T06:08:06.113Z,86.86
2022-08-28T06:14:10.944Z,86.00
2022-08-28T06:20:13.665Z,87.06
2022-08-28T06:26:15.728Z,86.10
2022-08-28T06:32:17.989Z,84.00
2022-08-28T06:38:23.602Z,83.91
2022-08-28T06:44:25.632Z,82.87
2022-08-28T06:50:27.721Z,82.50
2022-08-28T06:56:29.808Z,77.67
2022-08-28T07:02:31.810Z,75.35
2022-08-28T07:08:35.016Z,74.34
2022-08-28T07:14:38.126Z,74.63
2022-08-28T07:20:40.307Z,73.99
2022-08-28T07:26:44.735Z,73.81
2022-08-28T07:32:49.820Z,71.53
2022-08-28T07:38:52.495Z,70.11
2022-08-28T07:44:57.229Z,66.07
2022-08-28T07:50:59.202Z,62.41
2022-08-28T07:57:02.689Z,63.15
2022-08-28T08:03:05.078Z,63.00
2022-08-28T08:09:11.080Z,62.71
2022-08-28T08:15:13.601Z,64.14
2022-08-28T08:21:19.936Z,65.73
2022-08-28T08:27:22.188Z,65.62
2022-08-28T08:33:24.147Z,63.53
2022-08-28T08:39:26.442Z,64.64
2022-08-28T08:45:30.978Z,64.74
2022-08-28T08:51:43.241Z,65.34
2022-08-28T08:57:49.405Z,64.44
2022-08-28T09:04:22.645Z,61.83
2022-08-28T09:10:39.651Z,62.80
2022-08-28T09:16:45.568Z,63.03
2022-08-28T09:22:49.689Z,59.62
2022-08-28T09:29:14.221Z,54.63
2022-08-28T09:35:28.326Z,55.69
2022-08-28T09:41:49.392Z,56.02
2022-08-28T09:47:59.711Z,54.71
2022-08-28T09:54:29.495Z,53.21
2022-08-28T10:00:37.184Z,52.85
2022-08-28T10:06:40.247Z,50.01
2022-08-28T10:13:17.593Z,47.55
2022-08-28T10:19:45.737Z,50.69
2022-08-28T10:26:23.535Z,46.76
2022-08-28T10:32:55.985Z,42.80
2022-08-28T10:39:28.586Z,41.32
2022-08-28T10:45:34.891Z,39.19
2022-08-28T10:51:53.066Z,36.48
2022-08-28T10:58:04.790Z,34.88
2022-08-28T11:04:25.900Z,33.84
2022-08-28T11:10:34.935Z,32.74
2022-08-28T11:16:45.637Z,31.71
2022-08-28T11:22:56.464Z,33.98
2022-08-28T11:28:58.524Z,32.27
2022-08-28T11:35:12.308Z,33.45
2022-08-28T11:41:27.246Z,38.75
2022-08-28T11:47:43.408Z,38.80
2022-08-28T11:54:38.829Z,39.46
2022-08-28T12:01:03.616Z,39.14
2022-08-28T12:07:11.627Z,41.91
2022-08-28T12:13:48.716Z,43.48
2022-08-28T12:20:10.304Z,45.11
2022-08-28T12:26:30.346Z,42.42
2022-08-28T12:33:31.817Z,43.99
2022-08-28T12:39:34.205Z,41.48
2022-08-28T12:46:01.018Z,41.00
2022-08-28T12:52:20.932Z,42.42
2022-08-28T12:58:34.007Z,43.49
2022-08-28T13:05:09.222Z,41.72
2022-08-28T13:11:11.256Z,39.83
2022-08-28T13:17:36.023Z,37.10
2022-08-28T13:23:38.094Z,33.45
2022-08-28T13:30:03.881Z,32.26
2022-08-28T13:36:25.092Z,31.08
2022-08-28T13:42:27.061Z,29.22
2022-08-28T13:48:29.043Z,28.19
2022-08-28T13:54:31.029Z,30.07
2022-08-28T14:00:40.991Z,31.72
2022-08-28T14:06:44.423Z,31.30
2022-08-28T14:12:47.729Z,28.40
2022-08-28T14:18:50.412Z,27.24
2022-08-28T14:24:52.442Z,29.73
2022-08-28T14:30:54.432Z,28.38
2022-08-28T14:36:56.427Z,29.45
2022-08-28T14:42:58.357Z,27.35
2022-08-28T14:49:05.467Z,27.92
2022-08-28T14:55:08.072Z,27.63
2022-08-28T15:01:39.608Z,26.31
2022-08-28T15:07:42.951Z,26.33
2022-08-28T15:13:47.038Z,25.19
2022-08-28T15:19:49.063Z,24.69
2022-08-28T15:25:51.095Z,23.66
2022-08-28T15:31:53.621Z,23.29
2022-08-28T15:37:55.781Z,23.42
2022-08-28T15:44:01.474Z,23.35
2022-08-28T15:50:05.041Z,23.77
2022-08-28T15:56:07.455Z,23.54
2022-08-28T16:02:10.416Z,24.40
2022-08-28T16:08:12.425Z,24.42
2022-08-28T16:14:19.108Z,24.95
2022-08-28T16:20:22.883Z,27.63
2022-08-28T16:26:24.961Z,26.47
2022-08-28T16:32:26.996Z,26.19
2022-08-28T16:38:30.489Z,26.31
2022-08-28T16:44:33.067Z,26.27
2022-08-28T16:50:35.007Z,28.23
2022-08-28T16:56:37.405Z,28.65
2022-08-28T17:02:39.779Z,28.60
2022-08-28T17:08:42.115Z,28.09
2022-08-28T17:14:44.867Z,28.77
2022-08-28T17:21:05.390Z,29.56
2022-08-28T17:27:08.081Z,30.37
2022-08-28T17:33:10.075Z,31.52
2022-08-28T17:39:16.351Z,32.76
2022-08-28T17:45:18.470Z,33.02
2022-08-28T17:51:20.437Z,34.04
2022-08-28T17:57:42.466Z,36.02
2022-08-28T18:03:53.171Z,39.29
2022-08-28T18:09:55.515Z,42.14
2022-08-28T18:15:57.672Z,44.18
2022-08-28T18:21:59.656Z,45.95
2022-08-28T18:28:03.617Z,47.21
2022-08-28T18:34:06.219Z,48.33
2022-08-28T18:40:09.986Z,49.50
2022-08-28T18:46:14.957Z,50.54
2022-08-28T18:52:17.019Z,51.72
2022-08-28T18:58:19.085Z,53.09
2022-08-28T19:04:21.033Z,54.25
2022-08-28T19:10:33.278Z,56.20
2022-08-28T19:16:35.785Z,57.20
2022-08-28T19:22:38.736Z,58.01
2022-08-28T19:28:40.965Z,59.22
2022-08-28T19:34:43.901Z,59.95
2022-08-28T19:40:45.892Z,60.58
2022-08-28T19:46:48.406Z,60.35
2022-08-28T19:52:50.404Z,61.40
2022-08-28T19:58:58.415Z,61.83
2022-08-28T20:05:00.492Z,62.92
2022-08-28T20:11:02.488Z,63.17
2022-08-28T20:17:04.975Z,63.40
2022-08-28T20:23:07.465Z,64.58
2022-08-28T20:29:10.803Z,65.14
2022-08-28T20:35:14.374Z,66.12
2022-08-28T20:41:19.950Z,66.30
2022-08-28T20:47:22.147Z,67.09
2022-08-28T20:53:37.530Z,67.65
2022-08-28T20:59:42.082Z,67.48
2022-08-28T21:05:48.043Z,69.08
2022-08-28T21:11:51.686Z,70.13
2022-08-28T21:17:53.693Z,70.15
2022-08-28T21:23:56.086Z,70.88
2022-08-28T21:29:59.957Z,71.43
2022-08-28T21:36:02.052Z,72.49
2022-08-28T21:42:04.186Z,74.14
2022-08-28T21:48:06.163Z,74.14
2022-08-28T21:54:08.596Z,74.69
2022-08-28T22:00:23.161Z,75.02
2022-08-28T22:06:27.917Z,75.58
2022-08-28T22:12:31.093Z,75.43
2022-08-28T22:18:35.375Z,75.99
2022-08-28T22:24:37.630Z,76.20
2022-08-28T22:30:40.103Z,76.76
2022-08-28T22:36:42.121Z,78.32
2022-08-28T22:42:44.332Z,78.16
2022-08-28T22:48:46.487Z,78.28
2022-08-28T22:54:53.066Z,79.68
2022-08-28T23:00:56.989Z,80.20
2022-08-28T23:06:58.944Z,80.19
2022-08-28T23:13:00.921Z,80.62
2022-08-28T23:19:08.734Z,80.54
2022-08-28T23:25:19.283Z,81.85
2022-08-28T23:31:21.686Z,82.83
2022-08-28T23:37:23.820Z,83.11
2022-08-28T23:43:25.821Z,84.46
2022-08-28T23:49:27.820Z,84.37
2022-08-28T23:55:30.804Z,84.78
